sensor_id;sensor_type;location;lat;lon;timestamp;P1;durP1;ratioP1;P2;durP2;ratioP2
2748;SDS011;1382;52.142;11.618;2022-11-15T00:01:33;17.77;;;12.40;;
2748;SDS011;1382;52.142;11.618;2022-11-15T00:04:00;20.57;;;12.47;;
2748;SDS011;1382;52.142;11.618;2022-11-15T00:06:27;20.57;;;13.80;;
2748;SDS011;1382;52.142;11.618;2022-11-15T00:08:53;17.90;;;11.83;;
2748;SDS011;1382;52.142;11.618;2022-11-15T00:11:20;24.30;;;13.33;;
2748;SDS011;1382;52.142;11.618;2022-11-15T00:13:47;19.73;;;11.07;;
2748;SDS011;1382;52.142;11.618;2022-11-15T00:16:14;22.47;;;12.10;;
2748;SDS011;1382;52.142;11.618;2022-11-15T00:18:42;16.57;;;11.40;;
2748;SDS011;1382;52.142;11.618;2022-11-15T00:21:16;21.83;;;14.40;;
2748;SDS011;1382;52.142;11.618;2022-11-15T00:23:43;17.60;;;11.40;;
2748;SDS011;1382;52.142;11.618;2022-11-15T00:26:10;20.50;;;12.80;;
2748;SDS011;1382;52.142;11.618;2022-11-15T00:28:38;18.40;;;14.00;;
2748;SDS011;1382;52.142;11.618;2022-11-15T00:31:06;16.80;;;11.70;;
2748;SDS011;1382;52.142;11.618;2022-11-15T00:33:34;20.93;;;12.63;;
2748;SDS011;1382;52.142;11.618;2022-11-15T00:36:03;15.80;;;12.30;;
2748;SDS011;1382;52.142;11.618;2022-11-15T00:38:31;16.60;;;10.93;;
2748;SDS011;1382;52.142;11.618;2022-11-15T00:40:58;16.23;;;12.23;;
2748;SDS011;1382;52.142;11.618;2022-11-15T00:43:33;18.73;;;13.10;;
2748;SDS011;1382;52.142;11.618;2022-11-15T00:46:00;18.67;;;11.93;;
2748;SDS011;1382;52.142;11.618;2022-11-15T00:48:27;20.90;;;13.73;;
2748;SDS011;1382;52.142;11.618;2022-11-15T00:50:53;19.93;;;14.00;;
2748;SDS011;1382;52.142;11.618;2022-11-15T00:53:21;20.07;;;11.33;;
2748;SDS011;1382;52.142;11.618;2022-11-15T00:55:48;21.30;;;12.77;;
2748;SDS011;1382;52.142;11.618;2022-11-15T00:58:15;20.23;;;12.30;;
2748;SDS011;1382;52.142;11.618;2022-11-15T01:00:42;18.20;;;12.40;;
2748;SDS011;1382;52.142;11.618;2022-11-15T01:03:08;25.37;;;13.37;;
2748;SDS011;1382;52.142;11.618;2022-11-15T01:05:36;16.50;;;10.83;;
2748;SDS011;1382;52.142;11.618;2022-11-15T01:08:03;19.20;;;11.70;;
2748;SDS011;1382;52.142;11.618;2022-11-15T01:10:31;17.20;;;11.00;;
2748;SDS011;1382;52.142;11.618;2022-11-15T01:12:58;21.50;;;13.00;;
2748;SDS011;1382;52.142;11.618;2022-11-15T01:15:25;18.70;;;13.07;;
2748;SDS011;1382;52.142;11.618;2022-11-15T01:17:52;17.60;;;12.97;;
2748;SDS011;1382;52.142;11.618;2022-11-15T01:20:18;16.97;;;11.70;;
2748;SDS011;1382;52.142;11.618;2022-11-15T01:22:45;17.40;;;12.40;;
2748;SDS011;1382;52.142;11.618;2022-11-15T01:25:12;17.80;;;12.50;;
2748;SDS011;1382;52.142;11.618;2022-11-15T01:27:41;20.70;;;13.43;;
2748;SDS011;1382;52.142;11.618;2022-11-15T01:30:08;16.60;;;12.07;;
2748;SDS011;1382;52.142;11.618;2022-11-15T01:32:35;17.33;;;11.10;;
2748;SDS011;1382;52.142;11.618;2022-11-15T01:35:02;19.03;;;12.83;;
2748;SDS011;1382;52.142;11.618;2022-11-15T01:37:29;18.73;;;12.43;;
2748;SDS011;1382;52.142;11.618;2022-11-15T01:39:56;18.97;;;12.37;;
2748;SDS011;1382;52.142;11.618;2022-11-15T01:42:22;21.63;;;13.13;;
2748;SDS011;1382;52.142;11.618;2022-11-15T01:44:51;21.13;;;12.40;;
2748;SDS011;1382;52.142;11.618;2022-11-15T01:47:18;19.13;;;14.23;;
2748;SDS011;1382;52.142;11.618;2022-11-15T01:49:50;22.13;;;12.80;;
2748;SDS011;1382;52.142;11.618;2022-11-15T01:52:21;21.60;;;12.70;;
2748;SDS011;1382;52.142;11.618;2022-11-15T01:54:50;18.80;;;13.00;;
2748;SDS011;1382;52.142;11.618;2022-11-15T01:57:21;17.60;;;11.57;;
2748;SDS011;1382;52.142;11.618;2022-11-15T01:59:48;19.43;;;12.60;;
2748;SDS011;1382;52.142;11.618;2022-11-15T02:02:16;19.13;;;11.80;;
2748;SDS011;1382;52.142;11.618;2022-11-15T02:04:44;18.03;;;11.23;;
2748;SDS011;1382;52.142;11.618;2022-11-15T02:07:13;20.47;;;13.80;;
2748;SDS011;1382;52.142;11.618;2022-11-15T02:09:42;22.33;;;13.20;;
2748;SDS011;1382;52.142;11.618;2022-11-15T02:12:10;17.20;;;11.70;;
2748;SDS011;1382;52.142;11.618;2022-11-15T02:14:40;17.73;;;11.60;;
2748;SDS011;1382;52.142;11.618;2022-11-15T02:17:13;19.57;;;12.20;;
2748;SDS011;1382;52.142;11.618;2022-11-15T02:20:07;17.73;;;11.07;;
2748;SDS011;1382;52.142;11.618;2022-11-15T02:22:50;17.70;;;11.53;;
2748;SDS011;1382;52.142;11.618;2022-11-15T02:25:36;16.00;;;11.80;;
2748;SDS011;1382;52.142;11.618;2022-11-15T02:31:05;17.40;;;10.87;;
2748;SDS011;1382;52.142;11.618;2022-11-15T02:33:39;15.70;;;10.50;;
2748;SDS011;1382;52.142;11.618;2022-11-15T02:36:15;20.40;;;11.90;;
2748;SDS011;1382;52.142;11.618;2022-11-15T02:38:46;19.23;;;12.43;;
2748;SDS011;1382;52.142;11.618;2022-11-15T02:41:22;18.07;;;11.07;;
2748;SDS011;1382;52.142;11.618;2022-11-15T02:43:55;17.77;;;12.17;;
2748;SDS011;1382;52.142;11.618;2022-11-15T02:46:30;19.70;;;11.93;;
2748;SDS011;1382;52.142;11.618;2022-11-15T02:49:01;16.50;;;12.80;;
2748;SDS011;1382;52.142;11.618;2022-11-15T02:51:27;19.30;;;10.50;;
2748;SDS011;1382;52.142;11.618;2022-11-15T02:53:54;16.47;;;11.07;;
2748;SDS011;1382;52.142;11.618;2022-11-15T02:56:21;21.33;;;12.37;;
2748;SDS011;1382;52.142;11.618;2022-11-15T02:58:50;20.20;;;12.37;;
2748;SDS011;1382;52.142;11.618;2022-11-15T03:01:41;18.57;;;11.27;;
2748;SDS011;1382;52.142;11.618;2022-11-15T03:04:21;19.30;;;12.53;;
2748;SDS011;1382;52.142;11.618;2022-11-15T03:06:56;15.07;;;11.83;;
2748;SDS011;1382;52.142;11.618;2022-11-15T03:09:29;19.57;;;10.90;;
2748;SDS011;1382;52.142;11.618;2022-11-15T03:12:07;13.43;;;10.20;;
2748;SDS011;1382;52.142;11.618;2022-11-15T03:14:39;17.27;;;11.50;;
2748;SDS011;1382;52.142;11.618;2022-11-15T03:17:15;19.93;;;12.70;;
2748;SDS011;1382;52.142;11.618;2022-11-15T03:19:49;18.43;;;12.90;;
2748;SDS011;1382;52.142;11.618;2022-11-15T03:22:20;18.20;;;11.73;;
2748;SDS011;1382;52.142;11.618;2022-11-15T03:24:50;17.80;;;10.10;;
2748;SDS011;1382;52.142;11.618;2022-11-15T03:27:21;15.63;;;11.20;;
2748;SDS011;1382;52.142;11.618;2022-11-15T03:29:52;17.43;;;11.13;;
2748;SDS011;1382;52.142;11.618;2022-11-15T03:32:24;15.10;;;10.17;;
2748;SDS011;1382;52.142;11.618;2022-11-15T03:34:55;22.20;;;12.33;;
2748;SDS011;1382;52.142;11.618;2022-11-15T03:37:25;18.57;;;10.67;;
2748;SDS011;1382;52.142;11.618;2022-11-15T03:39:58;20.73;;;11.77;;
2748;SDS011;1382;52.142;11.618;2022-11-15T03:42:27;18.73;;;13.00;;
2748;SDS011;1382;52.142;11.618;2022-11-15T03:44:58;17.77;;;11.70;;
2748;SDS011;1382;52.142;11.618;2022-11-15T03:47:32;18.13;;;12.47;;
2748;SDS011;1382;52.142;11.618;2022-11-15T03:50:03;16.13;;;10.60;;
2748;SDS011;1382;52.142;11.618;2022-11-15T03:52:34;23.00;;;11.63;;
2748;SDS011;1382;52.142;11.618;2022-11-15T03:55:01;13.47;;;9.70;;
2748;SDS011;1382;52.142;11.618;2022-11-15T03:57:30;15.73;;;9.30;;
2748;SDS011;1382;52.142;11.618;2022-11-15T03:59:57;16.90;;;11.00;;
2748;SDS011;1382;52.142;11.618;2022-11-15T04:02:24;18.07;;;12.00;;
2748;SDS011;1382;52.142;11.618;2022-11-15T04:04:52;18.30;;;11.10;;
2748;SDS011;1382;52.142;11.618;2022-11-15T04:07:19;16.30;;;10.47;;
2748;SDS011;1382;52.142;11.618;2022-11-15T04:09:46;18.27;;;11.43;;
2748;SDS011;1382;52.142;11.618;2022-11-15T04:12:12;18.53;;;11.70;;
2748;SDS011;1382;52.142;11.618;2022-11-15T04:14:39;20.00;;;10.60;;
2748;SDS011;1382;52.142;11.618;2022-11-15T04:17:06;16.00;;;9.53;;
2748;SDS011;1382;52.142;11.618;2022-11-15T04:19:33;17.80;;;12.30;;
2748;SDS011;1382;52.142;11.618;2022-11-15T04:22:01;14.53;;;9.30;;
2748;SDS011;1382;52.142;11.618;2022-11-15T04:24:27;17.07;;;10.67;;
2748;SDS011;1382;52.142;11.618;2022-11-15T04:26:54;16.20;;;12.00;;
2748;SDS011;1382;52.142;11.618;2022-11-15T04:29:21;18.07;;;11.80;;
2748;SDS011;1382;52.142;11.618;2022-11-15T04:31:48;15.67;;;10.37;;
2748;SDS011;1382;52.142;11.618;2022-11-15T04:34:14;18.00;;;11.50;;
2748;SDS011;1382;52.142;11.618;2022-11-15T04:36:41;16.73;;;11.07;;
2748;SDS011;1382;52.142;11.618;2022-11-15T04:39:09;20.53;;;10.60;;
2748;SDS011;1382;52.142;11.618;2022-11-15T04:41:36;18.10;;;11.30;;
2748;SDS011;1382;52.142;11.618;2022-11-15T04:44:03;18.80;;;11.23;;
2748;SDS011;1382;52.142;11.618;2022-11-15T04:46:30;14.00;;;9.33;;
2748;SDS011;1382;52.142;11.618;2022-11-15T04:48:56;12.90;;;10.23;;
2748;SDS011;1382;52.142;11.618;2022-11-15T04:51:24;18.47;;;12.40;;
2748;SDS011;1382;52.142;11.618;2022-11-15T04:53:51;17.13;;;10.63;;
2748;SDS011;1382;52.142;11.618;2022-11-15T04:56:20;20.00;;;11.50;;
2748;SDS011;1382;52.142;11.618;2022-11-15T04:58:48;21.43;;;11.93;;
2748;SDS011;1382;52.142;11.618;2022-11-15T05:01:15;19.50;;;10.43;;
2748;SDS011;1382;52.142;11.618;2022-11-15T05:03:42;16.17;;;10.87;;
2748;SDS011;1382;52.142;11.618;2022-11-15T05:06:09;17.07;;;10.50;;
2748;SDS011;1382;52.142;11.618;2022-11-15T05:08:36;19.90;;;12.03;;
2748;SDS011;1382;52.142;11.618;2022-11-15T05:11:03;18.23;;;10.70;;
2748;SDS011;1382;52.142;11.618;2022-11-15T05:13:31;19.63;;;10.90;;
2748;SDS011;1382;52.142;11.618;2022-11-15T05:15:58;16.87;;;11.43;;
2748;SDS011;1382;52.142;11.618;2022-11-15T05:18:25;20.80;;;13.00;;
2748;SDS011;1382;52.142;11.618;2022-11-15T05:20:52;17.03;;;9.90;;
2748;SDS011;1382;52.142;11.618;2022-11-15T05:23:19;16.33;;;10.23;;
2748;SDS011;1382;52.142;11.618;2022-11-15T05:25:46;16.07;;;10.30;;
2748;SDS011;1382;52.142;11.618;2022-11-15T05:28:13;16.67;;;11.17;;
2748;SDS011;1382;52.142;11.618;2022-11-15T05:30:41;17.50;;;11.50;;
2748;SDS011;1382;52.142;11.618;2022-11-15T05:33:08;18.07;;;11.00;;
2748;SDS011;1382;52.142;11.618;2022-11-15T05:35:35;19.50;;;12.10;;
2748;SDS011;1382;52.142;11.618;2022-11-15T05:38:05;17.17;;;10.20;;
2748;SDS011;1382;52.142;11.618;2022-11-15T05:40:32;17.60;;;11.83;;
2748;SDS011;1382;52.142;11.618;2022-11-15T05:43:00;15.00;;;10.17;;
2748;SDS011;1382;52.142;11.618;2022-11-15T05:45:29;19.20;;;10.77;;
2748;SDS011;1382;52.142;11.618;2022-11-15T05:47:57;13.50;;;9.77;;
2748;SDS011;1382;52.142;11.618;2022-11-15T05:50:27;13.60;;;9.77;;
2748;SDS011;1382;52.142;11.618;2022-11-15T05:52:54;17.60;;;10.63;;
2748;SDS011;1382;52.142;11.618;2022-11-15T05:55:27;17.13;;;11.43;;
2748;SDS011;1382;52.142;11.618;2022-11-15T05:57:54;19.90;;;10.20;;
2748;SDS011;1382;52.142;11.618;2022-11-15T06:00:21;20.83;;;10.50;;
2748;SDS011;1382;52.142;11.618;2022-11-15T06:02:48;13.23;;;8.70;;
2748;SDS011;1382;52.142;11.618;2022-11-15T06:05:16;15.10;;;10.23;;
2748;SDS011;1382;52.142;11.618;2022-11-15T06:07:43;14.70;;;10.03;;
2748;SDS011;1382;52.142;11.618;2022-11-15T06:10:10;13.83;;;8.20;;
2748;SDS011;1382;52.142;11.618;2022-11-15T06:12:37;16.97;;;11.13;;
2748;SDS011;1382;52.142;11.618;2022-11-15T06:15:03;19.17;;;9.67;;
2748;SDS011;1382;52.142;11.618;2022-11-15T06:17:31;14.63;;;10.20;;
2748;SDS011;1382;52.142;11.618;2022-11-15T06:19:58;15.73;;;9.60;;
2748;SDS011;1382;52.142;11.618;2022-11-15T06:22:26;15.83;;;10.53;;
2748;SDS011;1382;52.142;11.618;2022-11-15T06:24:52;15.33;;;8.67;;
2748;SDS011;1382;52.142;11.618;2022-11-15T06:27:19;15.27;;;9.37;;
2748;SDS011;1382;52.142;11.618;2022-11-15T06:29:46;15.77;;;10.47;;
2748;SDS011;1382;52.142;11.618;2022-11-15T06:32:13;17.47;;;11.07;;
2748;SDS011;1382;52.142;11.618;2022-11-15T06:34:39;15.70;;;10.20;;
2748;SDS011;1382;52.142;11.618;2022-11-15T06:37:06;14.63;;;9.57;;
2748;SDS011;1382;52.142;11.618;2022-11-15T06:39:34;15.00;;;10.20;;
2748;SDS011;1382;52.142;11.618;2022-11-15T06:42:01;14.17;;;8.50;;
2748;SDS011;1382;52.142;11.618;2022-11-15T06:44:28;17.43;;;10.63;;
2748;SDS011;1382;52.142;11.618;2022-11-15T06:46:54;16.80;;;10.13;;
2748;SDS011;1382;52.142;11.618;2022-11-15T06:49:21;14.10;;;9.00;;
2748;SDS011;1382;52.142;11.618;2022-11-15T06:51:48;16.57;;;10.30;;
2748;SDS011;1382;52.142;11.618;2022-11-15T06:54:15;17.07;;;10.30;;
2748;SDS011;1382;52.142;11.618;2022-11-15T06:56:43;14.80;;;10.03;;
2748;SDS011;1382;52.142;11.618;2022-11-15T06:59:09;12.40;;;9.17;;
2748;SDS011;1382;52.142;11.618;2022-11-15T07:01:36;21.50;;;13.00;;
2748;SDS011;1382;52.142;11.618;2022-11-15T07:04:03;12.10;;;7.80;;
2748;SDS011;1382;52.142;11.618;2022-11-15T07:06:30;17.80;;;11.17;;
2748;SDS011;1382;52.142;11.618;2022-11-15T07:08:57;15.03;;;10.03;;
2748;SDS011;1382;52.142;11.618;2022-11-15T07:11:24;16.37;;;9.90;;
2748;SDS011;1382;52.142;11.618;2022-11-15T07:13:52;15.77;;;9.23;;
2748;SDS011;1382;52.142;11.618;2022-11-15T07:16:18;15.93;;;11.37;;
2748;SDS011;1382;52.142;11.618;2022-11-15T07:18:45;17.70;;;8.80;;
2748;SDS011;1382;52.142;11.618;2022-11-15T07:21:12;16.97;;;9.43;;
2748;SDS011;1382;52.142;11.618;2022-11-15T07:23:39;19.53;;;10.20;;
2748;SDS011;1382;52.142;11.618;2022-11-15T07:26:07;13.90;;;9.90;;
2748;SDS011;1382;52.142;11.618;2022-11-15T07:28:34;15.43;;;10.57;;
2748;SDS011;1382;52.142;11.618;2022-11-15T07:31:03;19.40;;;11.70;;
2748;SDS011;1382;52.142;11.618;2022-11-15T07:33:31;18.17;;;9.87;;
2748;SDS011;1382;52.142;11.618;2022-11-15T07:35:58;16.67;;;8.77;;
2748;SDS011;1382;52.142;11.618;2022-11-15T07:38:25;23.87;;;11.07;;
2748;SDS011;1382;52.142;11.618;2022-11-15T07:40:55;16.90;;;11.50;;
2748;SDS011;1382;52.142;11.618;2022-11-15T07:43:23;19.90;;;12.33;;
2748;SDS011;1382;52.142;11.618;2022-11-15T07:45:49;17.17;;;11.40;;
2748;SDS011;1382;52.142;11.618;2022-11-15T07:48:25;17.63;;;9.83;;
2748;SDS011;1382;52.142;11.618;2022-11-15T07:51:05;16.53;;;10.70;;
2748;SDS011;1382;52.142;11.618;2022-11-15T07:53:39;17.47;;;10.77;;
2748;SDS011;1382;52.142;11.618;2022-11-15T07:56:06;19.87;;;11.63;;
2748;SDS011;1382;52.142;11.618;2022-11-15T07:58:33;19.83;;;11.30;;
2748;SDS011;1382;52.142;11.618;2022-11-15T08:01:02;16.97;;;9.93;;
2748;SDS011;1382;52.142;11.618;2022-11-15T08:03:32;20.23;;;10.80;;
2748;SDS011;1382;52.142;11.618;2022-11-15T08:06:00;16.37;;;10.10;;
2748;SDS011;1382;52.142;11.618;2022-11-15T08:08:27;14.73;;;9.00;;
2748;SDS011;1382;52.142;11.618;2022-11-15T08:10:54;14.87;;;9.77;;
2748;SDS011;1382;52.142;11.618;2022-11-15T08:13:23;16.10;;;10.20;;
2748;SDS011;1382;52.142;11.618;2022-11-15T08:15:49;18.17;;;11.60;;
2748;SDS011;1382;52.142;11.618;2022-11-15T08:18:23;17.00;;;10.03;;
2748;SDS011;1382;52.142;11.618;2022-11-15T08:20:51;15.40;;;10.37;;
2748;SDS011;1382;52.142;11.618;2022-11-15T08:23:18;17.93;;;11.50;;
2748;SDS011;1382;52.142;11.618;2022-11-15T08:25:45;16.00;;;10.60;;
2748;SDS011;1382;52.142;11.618;2022-11-15T08:28:12;14.83;;;10.50;;
2748;SDS011;1382;52.142;11.618;2022-11-15T08:30:39;17.40;;;10.20;;
2748;SDS011;1382;52.142;11.618;2022-11-15T08:33:09;17.27;;;10.33;;
2748;SDS011;1382;52.142;11.618;2022-11-15T08:35:37;22.20;;;11.37;;
2748;SDS011;1382;52.142;11.618;2022-11-15T08:38:05;21.40;;;11.87;;
2748;SDS011;1382;52.142;11.618;2022-11-15T08:40:32;23.67;;;10.60;;
2748;SDS011;1382;52.142;11.618;2022-11-15T08:42:59;13.57;;;9.30;;
2748;SDS011;1382;52.142;11.618;2022-11-15T08:45:26;18.17;;;10.70;;
2748;SDS011;1382;52.142;11.618;2022-11-15T08:47:53;19.63;;;9.90;;
2748;SDS011;1382;52.142;11.618;2022-11-15T08:50:20;11.20;;;7.53;;
2748;SDS011;1382;52.142;11.618;2022-11-15T08:52:46;15.27;;;9.80;;
2748;SDS011;1382;52.142;11.618;2022-11-15T08:55:15;19.47;;;10.40;;
2748;SDS011;1382;52.142;11.618;2022-11-15T08:57:43;15.53;;;11.60;;
2748;SDS011;1382;52.142;11.618;2022-11-15T09:00:10;16.87;;;9.93;;
2748;SDS011;1382;52.142;11.618;2022-11-15T09:02:38;11.07;;;8.60;;
2748;SDS011;1382;52.142;11.618;2022-11-15T09:05:06;16.70;;;10.40;;
2748;SDS011;1382;52.142;11.618;2022-11-15T09:07:33;18.67;;;10.90;;
2748;SDS011;1382;52.142;11.618;2022-11-15T09:10:00;18.37;;;10.00;;
2748;SDS011;1382;52.142;11.618;2022-11-15T09:12:28;21.43;;;10.63;;
2748;SDS011;1382;52.142;11.618;2022-11-15T09:14:55;16.17;;;10.37;;
2748;SDS011;1382;52.142;11.618;2022-11-15T09:17:22;13.83;;;8.90;;
2748;SDS011;1382;52.142;11.618;2022-11-15T09:19:50;14.17;;;10.00;;
2748;SDS011;1382;52.142;11.618;2022-11-15T09:22:17;16.90;;;10.17;;
2748;SDS011;1382;52.142;11.618;2022-11-15T09:24:44;14.90;;;10.87;;
2748;SDS011;1382;52.142;11.618;2022-11-15T09:27:11;14.83;;;9.33;;
2748;SDS011;1382;52.142;11.618;2022-11-15T09:29:39;15.03;;;10.20;;
2748;SDS011;1382;52.142;11.618;2022-11-15T09:32:06;18.77;;;11.23;;
2748;SDS011;1382;52.142;11.618;2022-11-15T09:34:32;15.37;;;9.80;;
2748;SDS011;1382;52.142;11.618;2022-11-15T09:36:59;12.17;;;9.80;;
2748;SDS011;1382;52.142;11.618;2022-11-15T09:39:26;21.00;;;11.27;;
2748;SDS011;1382;52.142;11.618;2022-11-15T09:42:03;18.67;;;11.17;;
2748;SDS011;1382;52.142;11.618;2022-11-15T09:44:48;14.57;;;9.53;;
2748;SDS011;1382;52.142;11.618;2022-11-15T09:47:36;12.70;;;9.23;;
2748;SDS011;1382;52.142;11.618;2022-11-15T09:50:11;15.13;;;9.30;;
2748;SDS011;1382;52.142;11.618;2022-11-15T09:52:41;16.17;;;10.30;;
2748;SDS011;1382;52.142;11.618;2022-11-15T09:55:10;12.60;;;9.23;;
2748;SDS011;1382;52.142;11.618;2022-11-15T09:57:41;12.53;;;8.93;;
2748;SDS011;1382;52.142;11.618;2022-11-15T10:00:18;12.00;;;9.50;;
2748;SDS011;1382;52.142;11.618;2022-11-15T10:03:08;20.70;;;9.10;;
2748;SDS011;1382;52.142;11.618;2022-11-15T10:05:38;11.27;;;8.67;;
2748;SDS011;1382;52.142;11.618;2022-11-15T10:08:10;15.00;;;9.63;;
2748;SDS011;1382;52.142;11.618;2022-11-15T10:10:47;13.10;;;9.00;;
2748;SDS011;1382;52.142;11.618;2022-11-15T10:13:40;11.97;;;7.97;;
2748;SDS011;1382;52.142;11.618;2022-11-15T10:19:05;13.37;;;8.07;;
2748;SDS011;1382;52.142;11.618;2022-11-15T10:21:40;10.60;;;8.07;;
2748;SDS011;1382;52.142;11.618;2022-11-15T10:24:17;13.60;;;8.57;;
2748;SDS011;1382;52.142;11.618;2022-11-15T10:26:46;8.57;;;6.57;;
2748;SDS011;1382;52.142;11.618;2022-11-15T10:29:17;23.70;;;11.47;;
2748;SDS011;1382;52.142;11.618;2022-11-15T10:31:46;12.10;;;7.93;;
2748;SDS011;1382;52.142;11.618;2022-11-15T10:34:14;8.00;;;6.33;;
2748;SDS011;1382;52.142;11.618;2022-11-15T10:36:44;13.37;;;7.13;;
2748;SDS011;1382;52.142;11.618;2022-11-15T10:39:15;10.03;;;7.20;;
2748;SDS011;1382;52.142;11.618;2022-11-15T10:41:42;10.10;;;6.93;;
2748;SDS011;1382;52.142;11.618;2022-11-15T10:44:17;11.47;;;6.90;;
2748;SDS011;1382;52.142;11.618;2022-11-15T10:49:53;9.50;;;7.20;;
2748;SDS011;1382;52.142;11.618;2022-11-15T10:52:21;13.83;;;8.50;;
2748;SDS011;1382;52.142;11.618;2022-11-15T10:54:48;9.27;;;7.07;;
2748;SDS011;1382;52.142;11.618;2022-11-15T10:57:17;11.43;;;6.97;;
2748;SDS011;1382;52.142;11.618;2022-11-15T10:59:46;10.27;;;7.30;;
2748;SDS011;1382;52.142;11.618;2022-11-15T11:02:28;9.07;;;7.10;;
2748;SDS011;1382;52.142;11.618;2022-11-15T11:04:58;11.97;;;8.00;;
2748;SDS011;1382;52.142;11.618;2022-11-15T11:07:26;10.30;;;7.80;;
2748;SDS011;1382;52.142;11.618;2022-11-15T11:09:58;9.50;;;6.83;;
2748;SDS011;1382;52.142;11.618;2022-11-15T11:12:27;6.77;;;6.00;;
2748;SDS011;1382;52.142;11.618;2022-11-15T11:14:55;10.27;;;6.70;;
2748;SDS011;1382;52.142;11.618;2022-11-15T11:17:23;10.90;;;8.27;;
2748;SDS011;1382;52.142;11.618;2022-11-15T11:20:14;11.53;;;7.63;;
2748;SDS011;1382;52.142;11.618;2022-11-15T11:22:50;9.30;;;6.80;;
2748;SDS011;1382;52.142;11.618;2022-11-15T11:25:28;9.70;;;6.47;;
2748;SDS011;1382;52.142;11.618;2022-11-15T11:31:03;8.67;;;6.50;;
2748;SDS011;1382;52.142;11.618;2022-11-15T11:33:42;13.43;;;6.50;;
2748;SDS011;1382;52.142;11.618;2022-11-15T11:36:18;10.43;;;7.70;;
2748;SDS011;1382;52.142;11.618;2022-11-15T11:38:52;11.57;;;6.90;;
2748;SDS011;1382;52.142;11.618;2022-11-15T11:41:38;9.47;;;6.80;;
2748;SDS011;1382;52.142;11.618;2022-11-15T11:44:15;10.33;;;6.93;;
2748;SDS011;1382;52.142;11.618;2022-11-15T11:46:53;8.40;;;6.50;;
2748;SDS011;1382;52.142;11.618;2022-11-15T11:49:25;14.33;;;7.30;;
2748;SDS011;1382;52.142;11.618;2022-11-15T11:52:00;11.57;;;6.03;;
2748;SDS011;1382;52.142;11.618;2022-11-15T11:54:32;10.50;;;6.17;;
2748;SDS011;1382;52.142;11.618;2022-11-15T11:57:05;9.53;;;6.10;;
2748;SDS011;1382;52.142;11.618;2022-11-15T11:59:37;9.03;;;6.93;;
2748;SDS011;1382;52.142;11.618;2022-11-15T12:02:12;8.27;;;6.70;;
2748;SDS011;1382;52.142;11.618;2022-11-15T12:04:47;9.30;;;6.90;;
2748;SDS011;1382;52.142;11.618;2022-11-15T12:07:17;8.97;;;6.07;;
2748;SDS011;1382;52.142;11.618;2022-11-15T12:09:49;10.33;;;5.90;;
2748;SDS011;1382;52.142;11.618;2022-11-15T12:12:21;10.67;;;6.87;;
2748;SDS011;1382;52.142;11.618;2022-11-15T12:14:55;8.63;;;6.10;;
2748;SDS011;1382;52.142;11.618;2022-11-15T12:17:23;8.37;;;6.03;;
2748;SDS011;1382;52.142;11.618;2022-11-15T12:19:53;6.83;;;5.20;;
2748;SDS011;1382;52.142;11.618;2022-11-15T12:22:24;9.57;;;5.80;;
2748;SDS011;1382;52.142;11.618;2022-11-15T12:25:00;10.70;;;6.00;;
2748;SDS011;1382;52.142;11.618;2022-11-15T12:27:32;9.60;;;5.97;;
2748;SDS011;1382;52.142;11.618;2022-11-15T12:30:08;8.17;;;5.57;;
2748;SDS011;1382;52.142;11.618;2022-11-15T12:32:39;7.77;;;6.00;;
2748;SDS011;1382;52.142;11.618;2022-11-15T12:35:21;8.63;;;5.63;;
2748;SDS011;1382;52.142;11.618;2022-11-15T12:37:52;7.73;;;6.10;;
2748;SDS011;1382;52.142;11.618;2022-11-15T12:40:26;8.20;;;5.90;;
2748;SDS011;1382;52.142;11.618;2022-11-15T12:42:58;9.40;;;5.47;;
2748;SDS011;1382;52.142;11.618;2022-11-15T12:45:28;10.50;;;5.83;;
2748;SDS011;1382;52.142;11.618;2022-11-15T12:48:20;7.20;;;5.50;;
2748;SDS011;1382;52.142;11.618;2022-11-15T12:51:13;5.00;;;4.27;;
2748;SDS011;1382;52.142;11.618;2022-11-15T12:53:40;6.73;;;5.63;;
2748;SDS011;1382;52.142;11.618;2022-11-15T12:56:22;6.47;;;4.77;;
2748;SDS011;1382;52.142;11.618;2022-11-15T12:58:54;11.83;;;5.20;;
2748;SDS011;1382;52.142;11.618;2022-11-15T13:04:27;8.10;;;5.40;;
2748;SDS011;1382;52.142;11.618;2022-11-15T13:06:57;9.93;;;6.43;;
2748;SDS011;1382;52.142;11.618;2022-11-15T13:15:32;8.00;;;4.90;;
2748;SDS011;1382;52.142;11.618;2022-11-15T13:18:27;9.90;;;6.03;;
2748;SDS011;1382;52.142;11.618;2022-11-15T13:21:00;7.70;;;5.10;;
2748;SDS011;1382;52.142;11.618;2022-11-15T13:23:29;15.63;;;6.87;;
2748;SDS011;1382;52.142;11.618;2022-11-15T13:26:06;8.37;;;5.87;;
2748;SDS011;1382;52.142;11.618;2022-11-15T13:28:38;14.30;;;6.97;;
2748;SDS011;1382;52.142;11.618;2022-11-15T13:31:20;8.20;;;6.20;;
2748;SDS011;1382;52.142;11.618;2022-11-15T13:33:53;9.27;;;4.77;;
2748;SDS011;1382;52.142;11.618;2022-11-15T13:36:23;9.40;;;6.43;;
2748;SDS011;1382;52.142;11.618;2022-11-15T13:38:57;9.50;;;6.53;;
2748;SDS011;1382;52.142;11.618;2022-11-15T13:41:26;11.70;;;5.70;;
2748;SDS011;1382;52.142;11.618;2022-11-15T13:43:54;8.80;;;6.30;;
2748;SDS011;1382;52.142;11.618;2022-11-15T13:46:23;7.73;;;5.73;;
2748;SDS011;1382;52.142;11.618;2022-11-15T13:48:52;11.03;;;5.90;;
2748;SDS011;1382;52.142;11.618;2022-11-15T13:51:21;7.00;;;5.40;;
2748;SDS011;1382;52.142;11.618;2022-11-15T13:53:53;7.00;;;6.30;;
2748;SDS011;1382;52.142;11.618;2022-11-15T13:56:25;12.83;;;6.40;;
2748;SDS011;1382;52.142;11.618;2022-11-15T13:58:53;9.93;;;6.37;;
2748;SDS011;1382;52.142;11.618;2022-11-15T14:01:20;10.10;;;6.20;;
2748;SDS011;1382;52.142;11.618;2022-11-15T14:03:50;7.50;;;4.90;;
2748;SDS011;1382;52.142;11.618;2022-11-15T14:06:23;10.00;;;6.87;;
2748;SDS011;1382;52.142;11.618;2022-11-15T14:08:59;7.30;;;5.40;;
2748;SDS011;1382;52.142;11.618;2022-11-15T14:11:49;6.80;;;4.87;;
2748;SDS011;1382;52.142;11.618;2022-11-15T14:14:19;7.30;;;5.23;;
2748;SDS011;1382;52.142;11.618;2022-11-15T14:16:48;6.10;;;4.50;;
2748;SDS011;1382;52.142;11.618;2022-11-15T14:22:09;9.43;;;5.03;;
2748;SDS011;1382;52.142;11.618;2022-11-15T14:24:45;13.00;;;5.70;;
2748;SDS011;1382;52.142;11.618;2022-11-15T14:29:57;7.40;;;5.10;;
2748;SDS011;1382;52.142;11.618;2022-11-15T14:32:25;6.90;;;4.67;;
2748;SDS011;1382;52.142;11.618;2022-11-15T14:34:54;7.70;;;5.63;;
2748;SDS011;1382;52.142;11.618;2022-11-15T14:37:23;7.37;;;5.70;;
2748;SDS011;1382;52.142;11.618;2022-11-15T14:39:53;8.50;;;5.20;;
2748;SDS011;1382;52.142;11.618;2022-11-15T14:42:20;7.97;;;5.83;;
2748;SDS011;1382;52.142;11.618;2022-11-15T14:44:50;9.00;;;5.40;;
2748;SDS011;1382;52.142;11.618;2022-11-15T14:47:18;8.27;;;5.53;;
2748;SDS011;1382;52.142;11.618;2022-11-15T14:49:44;8.13;;;5.10;;
2748;SDS011;1382;52.142;11.618;2022-11-15T14:52:23;7.80;;;5.97;;
2748;SDS011;1382;52.142;11.618;2022-11-15T14:54:59;10.03;;;4.70;;
2748;SDS011;1382;52.142;11.618;2022-11-15T14:57:26;5.63;;;5.10;;
2748;SDS011;1382;52.142;11.618;2022-11-15T14:59:53;8.90;;;5.30;;
2748;SDS011;1382;52.142;11.618;2022-11-15T15:02:21;5.13;;;4.00;;
2748;SDS011;1382;52.142;11.618;2022-11-15T15:04:49;6.57;;;4.90;;
2748;SDS011;1382;52.142;11.618;2022-11-15T15:07:16;7.93;;;4.73;;
2748;SDS011;1382;52.142;11.618;2022-11-15T15:09:44;5.90;;;4.73;;
2748;SDS011;1382;52.142;11.618;2022-11-15T15:12:16;5.20;;;4.20;;
2748;SDS011;1382;52.142;11.618;2022-11-15T15:14:44;8.10;;;4.10;;
2748;SDS011;1382;52.142;11.618;2022-11-15T15:17:12;5.33;;;4.60;;
2748;SDS011;1382;52.142;11.618;2022-11-15T15:19:39;9.30;;;5.10;;
2748;SDS011;1382;52.142;11.618;2022-11-15T15:22:09;5.10;;;4.33;;
2748;SDS011;1382;52.142;11.618;2022-11-15T15:24:38;4.50;;;4.10;;
2748;SDS011;1382;52.142;11.618;2022-11-15T15:27:05;6.13;;;4.87;;